sensor_id;sensor_type;location;lat;lon;timestamp;P1;durP1;ratioP1;P2;durP2;ratioP2
25824;SDS011;13658;44.534;18.694;2023-06-10T00:01:16;18.05;;;13.40;;
25824;SDS011;13658;44.534;18.694;2023-06-10T00:03:43;15.82;;;12.98;;
25824;SDS011;13658;44.534;18.694;2023-06-10T00:06:09;21.88;;;13.70;;
25824;SDS011;13658;44.534;18.694;2023-06-10T00:08:35;15.35;;;13.25;;
25824;SDS011;13658;44.534;18.694;2023-06-10T00:11:02;20.52;;;13.73;;
25824;SDS011;13658;44.534;18.694;2023-06-10T00:13:29;19.40;;;13.30;;
25824;SDS011;13658;44.534;18.694;2023-06-10T00:15:55;19.17;;;12.52;;
25824;SDS011;13658;44.534;18.694;2023-06-10T00:18:21;18.50;;;12.27;;
25824;SDS011;13658;44.534;18.694;2023-06-10T00:20:47;14.98;;;11.35;;
25824;SDS011;13658;44.534;18.694;2023-06-10T00:23:18;21.08;;;14.65;;
25824;SDS011;13658;44.534;18.694;2023-06-10T00:25:44;18.17;;;12.20;;
25824;SDS011;13658;44.534;18.694;2023-06-10T00:28:10;19.65;;;12.15;;
25824;SDS011;13658;44.534;18.694;2023-06-10T00:30:36;24.98;;;11.55;;
25824;SDS011;13658;44.534;18.694;2023-06-10T00:33:02;19.17;;;12.82;;
25824;SDS011;13658;44.534;18.694;2023-06-10T00:35:28;18.92;;;12.43;;
25824;SDS011;13658;44.534;18.694;2023-06-10T00:37:54;19.80;;;12.93;;
25824;SDS011;13658;44.534;18.694;2023-06-10T00:40:20;16.85;;;11.93;;
25824;SDS011;13658;44.534;18.694;2023-06-10T00:42:46;19.10;;;13.00;;
25824;SDS011;13658;44.534;18.694;2023-06-10T00:45:12;16.23;;;13.52;;
25824;SDS011;13658;44.534;18.694;2023-06-10T00:47:38;16.90;;;12.80;;
25824;SDS011;13658;44.534;18.694;2023-06-10T00:50:05;18.40;;;13.05;;
25824;SDS011;13658;44.534;18.694;2023-06-10T00:52:32;18.42;;;12.98;;
25824;SDS011;13658;44.534;18.694;2023-06-10T00:55:00;23.08;;;13.20;;
25824;SDS011;13658;44.534;18.694;2023-06-10T00:57:27;19.73;;;12.93;;
25824;SDS011;13658;44.534;18.694;2023-06-10T00:59:55;20.67;;;12.68;;
25824;SDS011;13658;44.534;18.694;2023-06-10T01:02:22;17.70;;;13.40;;
25824;SDS011;13658;44.534;18.694;2023-06-10T01:04:49;19.05;;;13.57;;
25824;SDS011;13658;44.534;18.694;2023-06-10T01:07:21;18.15;;;11.90;;
25824;SDS011;13658;44.534;18.694;2023-06-10T01:10:02;14.13;;;11.40;;
25824;SDS011;13658;44.534;18.694;2023-06-10T01:12:41;17.58;;;11.23;;
25824;SDS011;13658;44.534;18.694;2023-06-10T01:15:16;17.05;;;11.40;;
25824;SDS011;13658;44.534;18.694;2023-06-10T01:18:00;17.17;;;11.10;;
25824;SDS011;13658;44.534;18.694;2023-06-10T01:20:34;19.23;;;11.80;;
25824;SDS011;13658;44.534;18.694;2023-06-10T01:23:05;13.80;;;10.68;;
25824;SDS011;13658;44.534;18.694;2023-06-10T01:25:32;16.58;;;11.32;;
25824;SDS011;13658;44.534;18.694;2023-06-10T01:28:07;15.15;;;11.55;;
25824;SDS011;13658;44.534;18.694;2023-06-10T01:30:46;16.50;;;12.02;;
25824;SDS011;13658;44.534;18.694;2023-06-10T01:33:28;18.10;;;12.43;;
25824;SDS011;13658;44.534;18.694;2023-06-10T01:35:58;17.20;;;12.45;;
25824;SDS011;13658;44.534;18.694;2023-06-10T01:38:27;19.08;;;13.05;;
25824;SDS011;13658;44.534;18.694;2023-06-10T01:40:58;19.00;;;12.63;;
25824;SDS011;13658;44.534;18.694;2023-06-10T01:43:26;15.82;;;12.13;;
25824;SDS011;13658;44.534;18.694;2023-06-10T01:45:52;21.02;;;12.38;;
25824;SDS011;13658;44.534;18.694;2023-06-10T01:48:18;18.67;;;12.43;;
25824;SDS011;13658;44.534;18.694;2023-06-10T01:50:44;19.67;;;13.45;;
25824;SDS011;13658;44.534;18.694;2023-06-10T01:53:10;19.17;;;13.35;;
25824;SDS011;13658;44.534;18.694;2023-06-10T01:55:36;19.15;;;13.75;;
25824;SDS011;13658;44.534;18.694;2023-06-10T01:58:02;18.88;;;13.32;;
25824;SDS011;13658;44.534;18.694;2023-06-10T02:00:28;19.58;;;13.57;;
25824;SDS011;13658;44.534;18.694;2023-06-10T02:02:54;18.75;;;13.10;;
25824;SDS011;13658;44.534;18.694;2023-06-10T02:05:20;18.30;;;12.23;;
25824;SDS011;13658;44.534;18.694;2023-06-10T02:07:47;17.88;;;13.18;;
25824;SDS011;13658;44.534;18.694;2023-06-10T02:10:13;20.70;;;13.07;;
25824;SDS011;13658;44.534;18.694;2023-06-10T02:12:39;18.88;;;12.80;;
25824;SDS011;13658;44.534;18.694;2023-06-10T02:15:05;20.20;;;13.70;;
25824;SDS011;13658;44.534;18.694;2023-06-10T02:17:31;19.55;;;12.82;;
25824;SDS011;13658;44.534;18.694;2023-06-10T02:19:58;17.10;;;12.38;;
25824;SDS011;13658;44.534;18.694;2023-06-10T02:22:25;18.60;;;13.48;;
25824;SDS011;13658;44.534;18.694;2023-06-10T02:24:51;19.33;;;12.27;;
25824;SDS011;13658;44.534;18.694;2023-06-10T02:27:17;18.30;;;12.32;;
25824;SDS011;13658;44.534;18.694;2023-06-10T02:29:43;16.85;;;12.55;;
25824;SDS011;13658;44.534;18.694;2023-06-10T02:32:10;22.38;;;12.80;;
25824;SDS011;13658;44.534;18.694;2023-06-10T02:34:36;16.58;;;12.63;;
25824;SDS011;13658;44.534;18.694;2023-06-10T02:37:04;17.02;;;12.25;;
25824;SDS011;13658;44.534;18.694;2023-06-10T02:39:30;16.88;;;12.23;;
25824;SDS011;13658;44.534;18.694;2023-06-10T02:41:57;18.65;;;12.50;;
25824;SDS011;13658;44.534;18.694;2023-06-10T02:44:23;21.45;;;13.20;;
25824;SDS011;13658;44.534;18.694;2023-06-10T02:46:49;17.52;;;12.85;;
25824;SDS011;13658;44.534;18.694;2023-06-10T02:49:16;20.33;;;13.38;;
25824;SDS011;13658;44.534;18.694;2023-06-10T02:51:44;19.98;;;12.85;;
25824;SDS011;13658;44.534;18.694;2023-06-10T02:54:10;17.45;;;12.70;;
25824;SDS011;13658;44.534;18.694;2023-06-10T02:56:36;20.38;;;13.27;;
25824;SDS011;13658;44.534;18.694;2023-06-10T02:59:05;16.25;;;12.82;;
25824;SDS011;13658;44.534;18.694;2023-06-10T03:01:32;20.08;;;12.82;;
25824;SDS011;13658;44.534;18.694;2023-06-10T03:04:05;17.63;;;12.13;;
25824;SDS011;13658;44.534;18.694;2023-06-10T03:06:33;16.67;;;11.55;;
25824;SDS011;13658;44.534;18.694;2023-06-10T03:09:09;20.98;;;11.65;;
25824;SDS011;13658;44.534;18.694;2023-06-10T03:11:37;19.35;;;10.35;;
25824;SDS011;13658;44.534;18.694;2023-06-10T03:14:03;18.08;;;11.38;;
25824;SDS011;13658;44.534;18.694;2023-06-10T03:16:31;15.65;;;10.95;;
25824;SDS011;13658;44.534;18.694;2023-06-10T03:18:58;15.77;;;12.52;;
25824;SDS011;13658;44.534;18.694;2023-06-10T03:21:24;20.95;;;12.40;;
25824;SDS011;13658;44.534;18.694;2023-06-10T03:23:54;19.15;;;12.90;;
25824;SDS011;13658;44.534;18.694;2023-06-10T03:26:20;17.90;;;12.73;;
25824;SDS011;13658;44.534;18.694;2023-06-10T03:28:47;19.60;;;13.32;;
25824;SDS011;13658;44.534;18.694;2023-06-10T03:31:14;16.45;;;12.30;;
25824;SDS011;13658;44.534;18.694;2023-06-10T03:33:42;18.40;;;12.57;;
25824;SDS011;13658;44.534;18.694;2023-06-10T03:36:08;18.35;;;12.52;;
25824;SDS011;13658;44.534;18.694;2023-06-10T03:38:35;17.35;;;12.38;;
25824;SDS011;13658;44.534;18.694;2023-06-10T03:41:05;16.98;;;11.88;;
25824;SDS011;13658;44.534;18.694;2023-06-10T03:43:31;17.50;;;12.32;;
25824;SDS011;13658;44.534;18.694;2023-06-10T03:45:57;17.35;;;12.85;;
25824;SDS011;13658;44.534;18.694;2023-06-10T03:48:23;17.98;;;12.70;;
25824;SDS011;13658;44.534;18.694;2023-06-10T03:50:52;18.80;;;12.52;;
25824;SDS011;13658;44.534;18.694;2023-06-10T03:53:19;15.32;;;12.52;;
25824;SDS011;13658;44.534;18.694;2023-06-10T03:55:46;19.85;;;13.15;;
25824;SDS011;13658;44.534;18.694;2023-06-10T03:58:14;18.63;;;12.85;;
25824;SDS011;13658;44.534;18.694;2023-06-10T04:00:43;19.38;;;12.05;;
25824;SDS011;13658;44.534;18.694;2023-06-10T04:03:11;15.95;;;11.07;;
25824;SDS011;13658;44.534;18.694;2023-06-10T04:05:44;15.32;;;10.80;;
25824;SDS011;13658;44.534;18.694;2023-06-10T04:08:10;15.52;;;10.13;;
25824;SDS011;13658;44.534;18.694;2023-06-10T04:10:36;18.75;;;10.73;;
25824;SDS011;13658;44.534;18.694;2023-06-10T04:13:02;14.23;;;10.20;;
25824;SDS011;13658;44.534;18.694;2023-06-10T04:15:33;17.13;;;10.95;;
25824;SDS011;13658;44.534;18.694;2023-06-10T04:18:02;17.48;;;12.13;;
25824;SDS011;13658;44.534;18.694;2023-06-10T04:20:29;19.13;;;12.77;;
25824;SDS011;13658;44.534;18.694;2023-06-10T04:22:55;18.27;;;12.07;;
25824;SDS011;13658;44.534;18.694;2023-06-10T04:25:22;20.58;;;11.88;;
25824;SDS011;13658;44.534;18.694;2023-06-10T04:27:49;17.30;;;11.98;;
25824;SDS011;13658;44.534;18.694;2023-06-10T04:30:16;15.93;;;11.68;;
25824;SDS011;13658;44.534;18.694;2023-06-10T04:32:43;15.80;;;10.98;;
25824;SDS011;13658;44.534;18.694;2023-06-10T04:35:14;14.60;;;11.00;;
25824;SDS011;13658;44.534;18.694;2023-06-10T04:37:42;20.48;;;13.15;;
25824;SDS011;13658;44.534;18.694;2023-06-10T04:40:09;15.05;;;11.10;;
25824;SDS011;13658;44.534;18.694;2023-06-10T04:42:36;15.30;;;10.65;;
25824;SDS011;13658;44.534;18.694;2023-06-10T04:45:02;13.65;;;10.13;;
25824;SDS011;13658;44.534;18.694;2023-06-10T04:47:29;16.27;;;10.65;;
25824;SDS011;13658;44.534;18.694;2023-06-10T04:49:59;13.98;;;10.45;;
25824;SDS011;13658;44.534;18.694;2023-06-10T04:52:28;13.52;;;10.52;;
25824;SDS011;13658;44.534;18.694;2023-06-10T04:54:54;13.15;;;11.07;;
25824;SDS011;13658;44.534;18.694;2023-06-10T04:57:20;17.77;;;12.07;;
25824;SDS011;13658;44.534;18.694;2023-06-10T04:59:47;17.95;;;13.55;;
25824;SDS011;13658;44.534;18.694;2023-06-10T05:02:13;28.27;;;12.75;;
25824;SDS011;13658;44.534;18.694;2023-06-10T05:04:39;16.40;;;10.30;;
25824;SDS011;13658;44.534;18.694;2023-06-10T05:07:05;15.02;;;11.05;;
25824;SDS011;13658;44.534;18.694;2023-06-10T05:09:31;16.05;;;10.93;;
25824;SDS011;13658;44.534;18.694;2023-06-10T05:11:58;17.08;;;11.23;;
25824;SDS011;13658;44.534;18.694;2023-06-10T05:14:24;15.88;;;10.73;;
25824;SDS011;13658;44.534;18.694;2023-06-10T05:16:50;14.38;;;10.40;;
25824;SDS011;13658;44.534;18.694;2023-06-10T05:19:16;16.40;;;12.63;;
25824;SDS011;13658;44.534;18.694;2023-06-10T05:21:43;18.38;;;11.98;;
25824;SDS011;13658;44.534;18.694;2023-06-10T05:24:09;16.13;;;11.23;;
25824;SDS011;13658;44.534;18.694;2023-06-10T05:26:36;15.48;;;10.80;;
25824;SDS011;13658;44.534;18.694;2023-06-10T05:29:06;15.00;;;10.52;;
25824;SDS011;13658;44.534;18.694;2023-06-10T05:31:34;15.85;;;11.40;;
25824;SDS011;13658;44.534;18.694;2023-06-10T05:34:00;12.90;;;10.32;;
25824;SDS011;13658;44.534;18.694;2023-06-10T05:36:26;14.70;;;11.05;;
25824;SDS011;13658;44.534;18.694;2023-06-10T05:38:52;14.00;;;10.27;;
25824;SDS011;13658;44.534;18.694;2023-06-10T05:41:18;16.75;;;10.60;;
25824;SDS011;13658;44.534;18.694;2023-06-10T05:43:46;16.45;;;10.82;;
25824;SDS011;13658;44.534;18.694;2023-06-10T05:46:12;16.17;;;10.35;;
25824;SDS011;13658;44.534;18.694;2023-06-10T05:48:38;17.48;;;11.95;;
25824;SDS011;13658;44.534;18.694;2023-06-10T05:51:04;14.95;;;11.57;;
25824;SDS011;13658;44.534;18.694;2023-06-10T05:53:30;17.92;;;11.07;;
25824;SDS011;13658;44.534;18.694;2023-06-10T05:55:56;16.05;;;11.48;;
25824;SDS011;13658;44.534;18.694;2023-06-10T05:58:23;16.05;;;12.27;;
25824;SDS011;13658;44.534;18.694;2023-06-10T06:00:51;16.17;;;11.27;;
25824;SDS011;13658;44.534;18.694;2023-06-10T06:03:17;15.60;;;11.70;;
25824;SDS011;13658;44.534;18.694;2023-06-10T06:05:43;19.02;;;13.00;;
25824;SDS011;13658;44.534;18.694;2023-06-10T06:08:11;16.95;;;13.32;;
25824;SDS011;13658;44.534;18.694;2023-06-10T06:10:38;18.05;;;14.52;;
25824;SDS011;13658;44.534;18.694;2023-06-10T06:13:04;15.20;;;12.95;;
25824;SDS011;13658;44.534;18.694;2023-06-10T06:15:30;16.70;;;12.63;;
25824;SDS011;13658;44.534;18.694;2023-06-10T06:17:57;18.73;;;13.02;;
25824;SDS011;13658;44.534;18.694;2023-06-10T06:20:23;18.42;;;13.70;;
25824;SDS011;13658;44.534;18.694;2023-06-10T06:22:49;18.67;;;13.55;;
25824;SDS011;13658;44.534;18.694;2023-06-10T06:25:15;20.15;;;14.20;;
25824;SDS011;13658;44.534;18.694;2023-06-10T06:27:41;17.90;;;13.93;;
25824;SDS011;13658;44.534;18.694;2023-06-10T06:30:07;17.42;;;12.98;;
25824;SDS011;13658;44.534;18.694;2023-06-10T06:32:33;17.50;;;12.82;;
25824;SDS011;13658;44.534;18.694;2023-06-10T06:34:59;15.20;;;12.07;;
25824;SDS011;13658;44.534;18.694;2023-06-10T06:37:25;18.25;;;13.48;;
25824;SDS011;13658;44.534;18.694;2023-06-10T06:40:03;19.33;;;16.83;;
25824;SDS011;13658;44.534;18.694;2023-06-10T06:42:30;19.05;;;14.95;;
25824;SDS011;13658;44.534;18.694;2023-06-10T06:45:07;16.55;;;14.07;;
25824;SDS011;13658;44.534;18.694;2023-06-10T06:47:34;17.05;;;12.48;;
25824;SDS011;13658;44.534;18.694;2023-06-10T06:50:00;19.08;;;14.80;;
25824;SDS011;13658;44.534;18.694;2023-06-10T06:52:26;15.85;;;13.05;;
25824;SDS011;13658;44.534;18.694;2023-06-10T06:54:51;14.93;;;11.50;;
25824;SDS011;13658;44.534;18.694;2023-06-10T06:57:17;17.88;;;12.15;;
25824;SDS011;13658;44.534;18.694;2023-06-10T06:59:43;16.20;;;12.63;;
25824;SDS011;13658;44.534;18.694;2023-06-10T07:02:10;15.60;;;12.02;;
25824;SDS011;13658;44.534;18.694;2023-06-10T07:04:36;13.38;;;10.70;;
25824;SDS011;13658;44.534;18.694;2023-06-10T07:07:02;14.45;;;11.40;;
25824;SDS011;13658;44.534;18.694;2023-06-10T07:09:29;14.73;;;11.45;;
25824;SDS011;13658;44.534;18.694;2023-06-10T07:11:55;16.60;;;10.68;;
25824;SDS011;13658;44.534;18.694;2023-06-10T07:14:21;14.13;;;10.70;;
25824;SDS011;13658;44.534;18.694;2023-06-10T07:16:47;14.75;;;10.98;;
25824;SDS011;13658;44.534;18.694;2023-06-10T07:19:14;20.55;;;13.23;;
25824;SDS011;13658;44.534;18.694;2023-06-10T07:21:40;20.13;;;15.07;;
25824;SDS011;13658;44.534;18.694;2023-06-10T07:24:07;15.98;;;12.68;;
25824;SDS011;13658;44.534;18.694;2023-06-10T07:26:33;18.60;;;15.70;;
25824;SDS011;13658;44.534;18.694;2023-06-10T07:28:59;16.50;;;13.73;;
25824;SDS011;13658;44.534;18.694;2023-06-10T07:31:25;16.15;;;11.05;;
25824;SDS011;13658;44.534;18.694;2023-06-10T07:34:00;13.70;;;11.13;;
25824;SDS011;13658;44.534;18.694;2023-06-10T07:36:26;12.30;;;9.73;;
25824;SDS011;13658;44.534;18.694;2023-06-10T07:38:54;13.00;;;10.57;;
25824;SDS011;13658;44.534;18.694;2023-06-10T07:41:22;13.15;;;10.43;;
25824;SDS011;13658;44.534;18.694;2023-06-10T07:43:50;11.93;;;9.98;;
25824;SDS011;13658;44.534;18.694;2023-06-10T07:46:22;12.90;;;10.93;;
25824;SDS011;13658;44.534;18.694;2023-06-10T07:48:49;11.82;;;9.25;;
25824;SDS011;13658;44.534;18.694;2023-06-10T07:51:18;11.05;;;9.35;;
25824;SDS011;13658;44.534;18.694;2023-06-10T07:53:44;13.38;;;10.20;;
25824;SDS011;13658;44.534;18.694;2023-06-10T07:56:11;12.57;;;10.68;;
25824;SDS011;13658;44.534;18.694;2023-06-10T07:58:37;10.27;;;9.18;;
25824;SDS011;13658;44.534;18.694;2023-06-10T08:01:03;11.02;;;9.77;;
25824;SDS011;13658;44.534;18.694;2023-06-10T08:03:29;11.88;;;10.68;;
25824;SDS011;13658;44.534;18.694;2023-06-10T08:05:55;10.00;;;9.00;;
25824;SDS011;13658;44.534;18.694;2023-06-10T08:08:21;10.57;;;9.48;;
25824;SDS011;13658;44.534;18.694;2023-06-10T08:10:47;13.32;;;11.65;;
25824;SDS011;13658;44.534;18.694;2023-06-10T08:13:14;10.27;;;9.27;;
25824;SDS011;13658;44.534;18.694;2023-06-10T08:15:40;9.80;;;8.80;;
25824;SDS011;13658;44.534;18.694;2023-06-10T08:18:06;18.92;;;16.92;;
25824;SDS011;13658;44.534;18.694;2023-06-10T08:20:32;11.75;;;10.55;;
25824;SDS011;13658;44.534;18.694;2023-06-10T08:22:58;11.60;;;10.30;;
25824;SDS011;13658;44.534;18.694;2023-06-10T08:25:24;10.10;;;9.18;;
25824;SDS011;13658;44.534;18.694;2023-06-10T08:27:50;10.75;;;9.65;;
25824;SDS011;13658;44.534;18.694;2023-06-10T08:30:17;11.88;;;10.00;;
25824;SDS011;13658;44.534;18.694;2023-06-10T08:32:43;11.15;;;10.02;;
25824;SDS011;13658;44.534;18.694;2023-06-10T08:35:09;10.32;;;9.43;;
25824;SDS011;13658;44.534;18.694;2023-06-10T08:37:36;11.60;;;10.50;;
25824;SDS011;13658;44.534;18.694;2023-06-10T08:40:02;12.18;;;11.00;;
25824;SDS011;13658;44.534;18.694;2023-06-10T08:42:30;11.95;;;10.27;;
25824;SDS011;13658;44.534;18.694;2023-06-10T08:45:09;11.82;;;10.63;;
25824;SDS011;13658;44.534;18.694;2023-06-10T08:47:43;13.95;;;12.45;;
25824;SDS011;13658;44.534;18.694;2023-06-10T08:50:11;11.50;;;10.40;;
25824;SDS011;13658;44.534;18.694;2023-06-10T08:52:39;12.32;;;11.10;;
25824;SDS011;13658;44.534;18.694;2023-06-10T08:55:27;15.43;;;13.90;;
25824;SDS011;13658;44.534;18.694;2023-06-10T08:57:59;15.43;;;13.85;;
25824;SDS011;13658;44.534;18.694;2023-06-10T09:00:26;14.60;;;13.20;;
25824;SDS011;13658;44.534;18.694;2023-06-10T09:02:57;15.10;;;13.50;;
25824;SDS011;13658;44.534;18.694;2023-06-10T09:05:24;11.35;;;10.35;;
25824;SDS011;13658;44.534;18.694;2023-06-10T09:07:52;10.05;;;9.15;;
25824;SDS011;13658;44.534;18.694;2023-06-10T09:10:19;10.52;;;8.82;;
25824;SDS011;13658;44.534;18.694;2023-06-10T09:12:45;10.00;;;9.00;;
25824;SDS011;13658;44.534;18.694;2023-06-10T09:15:11;17.85;;;15.93;;
25824;SDS011;13658;44.534;18.694;2023-06-10T09:17:38;20.85;;;17.02;;
25824;SDS011;13658;44.534;18.694;2023-06-10T09:20:06;18.85;;;16.83;;
25824;SDS011;13658;44.534;18.694;2023-06-10T09:22:33;9.00;;;8.20;;
25824;SDS011;13658;44.534;18.694;2023-06-10T09:25:07;9.70;;;8.88;;
25824;SDS011;13658;44.534;18.694;2023-06-10T09:27:44;10.23;;;9.23;;
25824;SDS011;13658;44.534;18.694;2023-06-10T09:30:25;9.75;;;8.75;;
25824;SDS011;13658;44.534;18.694;2023-06-10T09:32:55;7.65;;;7.05;;
25824;SDS011;13658;44.534;18.694;2023-06-10T09:35:22;8.20;;;7.50;;
25824;SDS011;13658;44.534;18.694;2023-06-10T09:37:52;9.13;;;8.13;;
25824;SDS011;13658;44.534;18.694;2023-06-10T09:40:19;10.30;;;9.43;;
25824;SDS011;13658;44.534;18.694;2023-06-10T09:42:45;10.02;;;9.02;;
25824;SDS011;13658;44.534;18.694;2023-06-10T09:45:14;13.90;;;8.90;;
25824;SDS011;13658;44.534;18.694;2023-06-10T09:47:41;11.30;;;10.10;;
25824;SDS011;13658;44.534;18.694;2023-06-10T09:50:07;13.90;;;9.90;;
25824;SDS011;13658;44.534;18.694;2023-06-10T09:52:33;12.30;;;10.60;;
25824;SDS011;13658;44.534;18.694;2023-06-10T09:55:02;11.13;;;9.70;;
25824;SDS011;13658;44.534;18.694;2023-06-10T09:57:32;12.57;;;10.57;;
25824;SDS011;13658;44.534;18.694;2023-06-10T10:00:08;13.02;;;11.82;;
25824;SDS011;13658;44.534;18.694;2023-06-10T10:02:45;13.63;;;12.27;;
25824;SDS011;13658;44.534;18.694;2023-06-10T10:05:15;14.68;;;12.05;;
25824;SDS011;13658;44.534;18.694;2023-06-10T10:07:43;28.15;;;24.02;;
25824;SDS011;13658;44.534;18.694;2023-06-10T10:10:09;45.85;;;40.72;;
25824;SDS011;13658;44.534;18.694;2023-06-10T10:12:40;9.85;;;8.95;;
25824;SDS011;13658;44.534;18.694;2023-06-10T10:15:10;9.43;;;8.52;;
25824;SDS011;13658;44.534;18.694;2023-06-10T10:17:37;8.55;;;7.43;;
25824;SDS011;13658;44.534;18.694;2023-06-10T10:20:12;8.40;;;7.60;;
25824;SDS011;13658;44.534;18.694;2023-06-10T10:22:43;8.30;;;7.32;;
25824;SDS011;13658;44.534;18.694;2023-06-10T10:25:13;13.20;;;11.80;;
25824;SDS011;13658;44.534;18.694;2023-06-10T10:28:19;10.77;;;9.27;;
25824;SDS011;13658;44.534;18.694;2023-06-10T10:30:41;7.22;;;6.55;;
25824;SDS011;13658;44.534;18.694;2023-06-10T10:33:16;10.60;;;9.50;;
25824;SDS011;13658;44.534;18.694;2023-06-10T10:35:45;7.88;;;7.07;;
25824;SDS011;13658;44.534;18.694;2023-06-10T10:38:12;7.38;;;6.75;;
25824;SDS011;13658;44.534;18.694;2023-06-10T10:40:38;8.25;;;7.45;;
25824;SDS011;13658;44.534;18.694;2023-06-10T10:43:05;10.20;;;9.20;;
25824;SDS011;13658;44.534;18.694;2023-06-10T10:45:33;11.50;;;9.90;;
25824;SDS011;13658;44.534;18.694;2023-06-10T10:48:04;18.55;;;12.07;;
25824;SDS011;13658;44.534;18.694;2023-06-10T10:50:37;15.57;;;9.60;;
25824;SDS011;13658;44.534;18.694;2023-06-10T10:53:04;16.10;;;11.10;;
25824;SDS011;13658;44.534;18.694;2023-06-10T10:55:31;12.55;;;9.30;;
25824;SDS011;13658;44.534;18.694;2023-06-10T10:58:05;15.02;;;12.75;;
25824;SDS011;13658;44.534;18.694;2023-06-10T11:00:34;13.70;;;11.20;;
25824;SDS011;13658;44.534;18.694;2023-06-10T11:03:13;14.60;;;10.73;;
25824;SDS011;13658;44.534;18.694;2023-06-10T11:05:47;13.93;;;8.30;;
25824;SDS011;13658;44.534;18.694;2023-06-10T11:08:15;13.23;;;6.97;;
25824;SDS011;13658;44.534;18.694;2023-06-10T11:11:02;8.93;;;5.13;;
25824;SDS011;13658;44.534;18.694;2023-06-10T11:13:57;8.57;;;5.53;;
25824;SDS011;13658;44.534;18.694;2023-06-10T11:16:26;15.35;;;7.85;;
25824;SDS011;13658;44.534;18.694;2023-06-10T11:18:54;17.33;;;11.70;;
25824;SDS011;13658;44.534;18.694;2023-06-10T11:21:20;20.98;;;13.85;;
25824;SDS011;13658;44.534;18.694;2023-06-10T11:23:48;17.25;;;12.65;;
25824;SDS011;13658;44.534;18.694;2023-06-10T11:31:23;22.48;;;12.63;;
25824;SDS011;13658;44.534;18.694;2023-06-10T11:34:01;38.50;;;27.45;;
25824;SDS011;13658;44.534;18.694;2023-06-10T11:36:32;38.35;;;25.05;;
25824;SDS011;13658;44.534;18.694;2023-06-10T11:39:03;25.35;;;17.35;;
25824;SDS011;13658;44.534;18.694;2023-06-10T11:41:33;17.60;;;12.65;;
25824;SDS011;13658;44.534;18.694;2023-06-10T11:44:01;18.95;;;14.90;;
25824;SDS011;13658;44.534;18.694;2023-06-10T11:46:34;24.10;;;20.00;;
25824;SDS011;13658;44.534;18.694;2023-06-10T11:49:01;17.48;;;13.50;;
25824;SDS011;13658;44.534;18.694;2023-06-10T11:51:28;50.25;;;30.73;;
25824;SDS011;13658;44.534;18.694;2023-06-10T11:53:57;15.63;;;11.38;;
25824;SDS011;13658;44.534;18.694;2023-06-10T11:56:24;22.85;;;16.85;;
25824;SDS011;13658;44.534;18.694;2023-06-10T12:01:25;12.23;;;9.98;;
25824;SDS011;13658;44.534;18.694;2023-06-10T12:03:58;16.45;;;11.00;;
25824;SDS011;13658;44.534;18.694;2023-06-10T12:06:41;13.98;;;10.15;;
25824;SDS011;13658;44.534;18.694;2023-06-10T12:09:18;26.38;;;16.30;;
25824;SDS011;13658;44.534;18.694;2023-06-10T12:11:45;14.93;;;11.60;;
25824;SDS011;13658;44.534;18.694;2023-06-10T12:19:57;9.60;;;7.40;;
25824;SDS011;13658;44.534;18.694;2023-06-10T12:22:25;9.52;;;7.45;;
25824;SDS011;13658;44.534;18.694;2023-06-10T12:25:01;8.05;;;6.35;;
25824;SDS011;13658;44.534;18.694;2023-06-10T12:27:30;9.18;;;6.75;;
25824;SDS011;13658;44.534;18.694;2023-06-10T12:30:00;8.13;;;7.03;;
25824;SDS011;13658;44.534;18.694;2023-06-10T12:32:43;11.45;;;7.55;;
25824;SDS011;13658;44.534;18.694;2023-06-10T12:35:11;7.03;;;6.13;;
25824;SDS011;13658;44.534;18.694;2023-06-10T12:37:40;8.57;;;7.65;;
25824;SDS011;13658;44.534;18.694;2023-06-10T12:40:06;10.02;;;8.02;;
25824;SDS011;13658;44.534;18.694;2023-06-10T12:42:35;8.48;;;6.32;;
25824;SDS011;13658;44.534;18.694;2023-06-10T12:45:02;8.75;;;6.53;;
25824;SDS011;13658;44.534;18.694;2023-06-10T12:47:30;8.13;;;7.13;;
25824;SDS011;13658;44.534;18.694;2023-06-10T12:50:06;9.13;;;6.22;;
25824;SDS011;13658;44.534;18.694;2023-06-10T12:52:34;7.78;;;7.00;;
25824;SDS011;13658;44.534;18.694;2023-06-10T12:55:00;6.05;;;5.53;;
25824;SDS011;13658;44.534;18.694;2023-06-10T12:57:26;6.85;;;6.15;;
25824;SDS011;13658;44.534;18.694;2023-06-10T12:59:52;8.50;;;6.28;;
25824;SDS011;13658;44.534;18.694;2023-06-10T13:02:18;6.28;;;5.68;;
25824;SDS011;13658;44.534;18.694;2023-06-10T13:04:45;7.72;;;6.07;;
25824;SDS011;13658;44.534;18.694;2023-06-10T13:07:12;6.85;;;6.15;;
25824;SDS011;13658;44.534;18.694;2023-06-10T13:09:38;7.75;;;6.50;;
25824;SDS011;13658;44.534;18.694;2023-06-10T13:12:05;7.20;;;6.35;;
25824;SDS011;13658;44.534;18.694;2023-06-10T13:14:31;10.57;;;7.53;;
25824;SDS011;13658;44.534;18.694;2023-06-10T13:16:57;15.32;;;10.48;;
25824;SDS011;13658;44.534;18.694;2023-06-10T13:19:23;13.05;;;10.70;;
25824;SDS011;13658;44.534;18.694;2023-06-10T13:21:49;11.30;;;9.15;;
25824;SDS011;13658;44.534;18.694;2023-06-10T13:24:15;11.18;;;8.85;;
25824;SDS011;13658;44.534;18.694;2023-06-10T13:26:41;24.83;;;18.98;;
25824;SDS011;13658;44.534;18.694;2023-06-10T13:29:07;15.30;;;10.60;;
25824;SDS011;13658;44.534;18.694;2023-06-10T13:31:39;12.57;;;8.10;;
25824;SDS011;13658;44.534;18.694;2023-06-10T13:34:05;10.65;;;8.10;;
25824;SDS011;13658;44.534;18.694;2023-06-10T13:36:31;8.55;;;7.28;;
25824;SDS011;13658;44.534;18.694;2023-06-10T13:38:58;8.20;;;6.90;;
25824;SDS011;13658;44.534;18.694;2023-06-10T13:41:23;7.18;;;6.45;;
25824;SDS011;13658;44.534;18.694;2023-06-10T13:43:50;7.43;;;5.97;;
25824;SDS011;13658;44.534;18.694;2023-06-10T13:46:15;6.65;;;6.05;;
25824;SDS011;13658;44.534;18.694;2023-06-10T13:48:41;6.32;;;5.65;;
25824;SDS011;13658;44.534;18.694;2023-06-10T13:51:07;11.00;;;8.35;;
25824;SDS011;13658;44.534;18.694;2023-06-10T13:53:34;9.43;;;6.55;;
25824;SDS011;13658;44.534;18.694;2023-06-10T13:56:01;9.25;;;6.03;;
25824;SDS011;13658;44.534;18.694;2023-06-10T13:58:27;8.05;;;6.20;;
25824;SDS011;13658;44.534;18.694;2023-06-10T14:00:53;7.22;;;6.40;;
25824;SDS011;13658;44.534;18.694;2023-06-10T14:03:19;6.50;;;5.80;;
25824;SDS011;13658;44.534;18.694;2023-06-10T14:05:45;7.63;;;6.10;;
25824;SDS011;13658;44.534;18.694;2023-06-10T14:08:11;7.97;;;6.25;;
25824;SDS011;13658;44.534;18.694;2023-06-10T14:10:38;8.57;;;5.93;;
25824;SDS011;13658;44.534;18.694;2023-06-10T14:13:04;7.35;;;6.65;;
25824;SDS011;13658;44.534;18.694;2023-06-10T14:15:32;6.80;;;6.05;;
25824;SDS011;13658;44.534;18.694;2023-06-10T14:17:58;7.18;;;5.97;;
25824;SDS011;13658;44.534;18.694;2023-06-10T14:20:24;6.40;;;5.80;;
25824;SDS011;13658;44.534;18.694;2023-06-10T14:22:51;7.57;;;6.05;;
25824;SDS011;13658;44.534;18.694;2023-06-10T14:25:17;6.57;;;5.97;;
25824;SDS011;13658;44.534;18.694;2023-06-10T14:27:44;6.93;;;6.07;;
25824;SDS011;13658;44.534;18.694;2023-06-10T14:30:12;7.88;;;7.07;;
25824;SDS011;13658;44.534;18.694;2023-06-10T14:32:38;9.07;;;7.55;;